createdAt,value
2017-01-04T00:00:31.882Z,0
2017-01-04T00:01:31.856Z,0
2017-01-04T00:02:31.789Z,0
2017-01-04T00:03:31.933Z,0
2017-01-04T00:04:32.053Z,0
2017-01-04T00:05:31.849Z,0
2017-01-04T00:06:31.889Z,0
2017-01-04T00:07:31.928Z,0
2017-01-04T00:08:31.848Z,0
2017-01-04T00:09:32.119Z,0
2017-01-04T00:10:32.079Z,0
2017-01-04T00:11:31.814Z,0
2017-01-04T00:12:32.003Z,0
2017-01-04T00:13:31.859Z,0
2017-01-04T00:14:31.939Z,0
2017-01-04T00:15:31.911Z,0
2017-01-04T00:16:31.838Z,0
2017-01-04T00:17:31.870Z,0
2017-01-04T00:18:31.822Z,0
2017-01-04T00:19:31.929Z,0
2017-01-04T00:20:31.864Z,0
2017-01-04T00:21:31.850Z,0
2017-01-04T00:22:31.914Z,0
2017-01-04T00:23:31.935Z,0
2017-01-04T00:24:31.860Z,0
2017-01-04T00:25:31.985Z,0
2017-01-04T00:26:31.817Z,0
2017-01-04T00:27:31.827Z,0
2017-01-04T00:28:31.860Z,0
2017-01-04T00:29:31.843Z,0
2017-01-04T00:30:32.019Z,0
2017-01-04T00:31:32.077Z,0
2017-01-04T00:32:31.948Z,0
2017-01-04T00:33:31.831Z,0
2017-01-04T00:34:31.828Z,0
2017-01-04T00:35:31.858Z,0
2017-01-04T00:36:31.921Z,0
2017-01-04T00:37:31.928Z,0
2017-01-04T00:38:31.857Z,0
2017-01-04T00:39:31.957Z,0
2017-01-04T00:40:31.985Z,0
2017-01-04T00:41:31.923Z,0
2017-01-04T00:42:31.888Z,0
2017-01-04T00:43:31.807Z,0
2017-01-04T00:44:32.578Z,0
2017-01-04T00:45:32.005Z,0
2017-01-04T00:46:31.987Z,0
2017-01-04T00:47:31.996Z,0
2017-01-04T00:48:31.839Z,0
2017-01-04T00:49:31.861Z,0
2017-01-04T00:50:31.863Z,0
2017-01-04T00:51:31.817Z,0
2017-01-04T00:52:33.925Z,0
2017-01-04T00:53:31.893Z,0
2017-01-04T00:54:32.158Z,0
2017-01-04T00:55:32.045Z,0
2017-01-04T00:56:31.845Z,0
2017-01-04T00:57:31.880Z,0
2017-01-04T00:58:31.833Z,0
2017-01-04T00:59:31.960Z,0
2017-01-04T01:00:31.827Z,0
2017-01-04T01:01:32.076Z,0
2017-01-04T01:02:31.896Z,0
2017-01-04T01:03:31.961Z,0
2017-01-04T01:04:41.839Z,0
2017-01-04T01:05:32.077Z,0
2017-01-04T01:06:31.938Z,0
2017-01-04T01:07:31.866Z,0
2017-01-04T01:08:31.867Z,0
2017-01-04T01:09:31.932Z,0
2017-01-04T01:10:31.960Z,0
2017-01-04T01:11:32.092Z,0
2017-01-04T01:12:31.910Z,0
2017-01-04T01:13:31.898Z,0
2017-01-04T01:14:31.866Z,0
2017-01-04T01:15:32.027Z,0
2017-01-04T01:16:31.922Z,0
2017-01-04T01:17:32.029Z,0
2017-01-04T01:18:32.502Z,0
2017-01-04T01:19:32.012Z,0
2017-01-04T01:20:31.969Z,0
2017-01-04T01:21:31.951Z,0
2017-01-04T01:22:31.914Z,0
2017-01-04T01:23:32.055Z,0
2017-01-04T01:24:31.964Z,0
2017-01-04T01:25:32.021Z,0
2017-01-04T01:26:31.902Z,0
2017-01-04T01:27:31.903Z,0
2017-01-04T01:28:31.940Z,0
2017-01-04T01:29:31.872Z,0
2017-01-04T01:30:32.167Z,0
2017-01-04T01:31:32.067Z,0
2017-01-04T01:32:31.897Z,0
2017-01-04T01:33:32.115Z,0
2017-01-04T01:34:31.958Z,0
2017-01-04T01:35:32.025Z,0
2017-01-04T01:36:31.948Z,0
2017-01-04T01:37:31.951Z,0
2017-01-04T01:38:31.947Z,0
2017-01-04T01:39:31.978Z,0
2017-01-04T01:40:31.904Z,0
2017-01-04T01:41:31.885Z,0
2017-01-04T01:42:31.998Z,0
2017-01-04T01:43:31.936Z,0
2017-01-04T01:44:31.990Z,0
2017-01-04T01:45:32.076Z,0
2017-01-04T01:46:31.906Z,0
2017-01-04T01:47:32.082Z,0
2017-01-04T01:48:31.982Z,0
2017-01-04T01:49:32.002Z,0
2017-01-04T01:50:31.965Z,0
2017-01-04T01:51:31.955Z,0
2017-01-04T01:52:31.932Z,0
2017-01-04T01:53:31.945Z,0
2017-01-04T01:54:31.934Z,0
2017-01-04T01:55:32.065Z,0
2017-01-04T01:56:31.953Z,0
2017-01-04T01:57:32.086Z,0
2017-01-04T01:58:31.988Z,0
2017-01-04T01:59:32.004Z,0
2017-01-04T02:00:34.865Z,0
2017-01-04T02:01:31.901Z,0
2017-01-04T02:02:31.910Z,0
2017-01-04T02:03:32.203Z,0
2017-01-04T02:04:31.974Z,0
2017-01-04T02:05:32.023Z,0
2017-01-04T02:10:49.409Z,0
2017-01-04T02:11:03.987Z,0
2017-01-04T02:12:03.484Z,0
2017-01-04T02:13:01.660Z,0
2017-01-04T02:14:03.878Z,0
2017-01-04T02:15:03.356Z,0
2017-01-04T02:16:01.205Z,0
2017-01-04T02:17:02.344Z,0
2017-01-04T02:18:02.663Z,0
2017-01-04T02:19:01.143Z,0
2017-01-04T02:20:01.152Z,0
2017-01-04T02:21:01.133Z,0
2017-01-04T02:22:01.159Z,0
2017-01-04T02:23:00.926Z,0
2017-01-04T02:24:01.002Z,0
2017-01-04T02:25:01.062Z,0
2017-01-04T02:26:01.023Z,0
2017-01-04T02:27:01.176Z,0
2017-01-04T02:28:01.112Z,0
2017-01-04T02:29:01.043Z,0
2017-01-04T02:30:01.012Z,0
2017-01-04T02:31:01.072Z,0
2017-01-04T02:32:00.965Z,0
2017-01-04T02:33:01.012Z,0
2017-01-04T02:34:01.039Z,0
2017-01-04T02:35:01.051Z,0
2017-01-04T02:36:01.066Z,0
2017-01-04T02:37:01.083Z,0
2017-01-04T02:38:01.152Z,0
2017-01-04T02:39:01.186Z,0
2017-01-04T02:40:01.111Z,0
2017-01-04T02:41:01.036Z,0
2017-01-04T02:42:01.069Z,0
2017-01-04T02:43:01.161Z,0
2017-01-04T02:44:01.210Z,0
2017-01-04T02:45:01.035Z,0
2017-01-04T02:46:01.202Z,0
2017-01-04T02:47:01.101Z,0
2017-01-04T02:48:01.148Z,0
2017-01-04T02:49:01.105Z,0
2017-01-04T02:50:01.121Z,0
2017-01-04T02:51:01.084Z,0
2017-01-04T02:52:01.130Z,0
2017-01-04T02:53:01.041Z,0
2017-01-04T02:54:01.076Z,0
2017-01-04T02:55:01.145Z,0
2017-01-04T02:56:01.130Z,0
2017-01-04T02:57:01.101Z,0
2017-01-04T02:58:01.061Z,0
2017-01-04T02:59:01.200Z,0
2017-01-04T03:00:01.008Z,0
2017-01-04T03:01:01.119Z,0
2017-01-04T03:02:01.210Z,0
2017-01-04T03:03:01.031Z,0
2017-01-04T03:04:01.088Z,0
2017-01-04T03:05:01.081Z,0
2017-01-04T03:06:01.069Z,0
2017-01-04T03:07:01.106Z,0
2017-01-04T03:08:01.219Z,0
2017-01-04T03:09:01.061Z,0
2017-01-04T03:10:01.202Z,0
2017-01-04T03:11:01.190Z,0
2017-01-04T03:12:01.080Z,0
2017-01-04T03:13:01.079Z,0
2017-01-04T03:14:01.144Z,0
2017-01-04T03:15:01.049Z,0
2017-01-04T03:16:01.061Z,0
2017-01-04T03:17:01.108Z,0
2017-01-04T03:18:01.079Z,0
2017-01-04T03:19:01.195Z,0
2017-01-04T03:20:01.183Z,0
2017-01-04T03:21:01.150Z,0
2017-01-04T03:22:01.130Z,0
2017-01-04T03:23:01.239Z,0
2017-01-04T03:24:01.132Z,0
2017-01-04T03:25:01.099Z,0
2017-01-04T03:26:01.200Z,0
2017-01-04T03:27:01.054Z,0
2017-01-04T03:28:01.165Z,0
2017-01-04T03:29:01.104Z,0
2017-01-04T03:30:01.166Z,0
2017-01-04T03:31:01.209Z,0
2017-01-04T03:32:01.230Z,0
2017-01-04T03:33:01.139Z,0
2017-01-04T03:34:01.146Z,0
2017-01-04T03:35:01.088Z,0
2017-01-04T03:36:01.220Z,0
2017-01-04T03:37:01.193Z,0
2017-01-04T03:38:01.195Z,0
2017-01-04T03:39:01.175Z,0
2017-01-04T03:40:01.174Z,0
2017-01-04T03:41:01.107Z,0
2017-01-04T03:42:01.230Z,0
2017-01-04T03:43:01.109Z,0
2017-01-04T03:44:11.137Z,0
2017-01-04T03:45:01.058Z,0
2017-01-04T03:46:01.190Z,0
2017-01-04T03:47:01.178Z,0
2017-01-04T03:48:01.217Z,0
2017-01-04T03:51:08.498Z,0
2017-01-04T03:51:20.271Z,0
2017-01-04T03:52:19.979Z,0
2017-01-04T03:53:20.163Z,0
2017-01-04T03:54:20.108Z,0
2017-01-04T03:55:20.157Z,0
2017-01-04T03:56:20.108Z,0
2017-01-04T03:57:20.148Z,0
2017-01-04T03:58:20.037Z,0
2017-01-04T03:59:20.185Z,0
2017-01-04T04:00:20.039Z,0
2017-01-04T04:01:23.536Z,0
2017-01-04T04:02:20.066Z,0
2017-01-04T04:03:20.227Z,0
2017-01-04T04:04:20.066Z,0
2017-01-04T04:05:20.077Z,0
2017-01-04T04:06:20.060Z,0
2017-01-04T04:07:21.107Z,0
2017-01-04T04:08:20.115Z,0
2017-01-04T04:09:20.055Z,0
2017-01-04T04:10:20.177Z,0
2017-01-04T04:11:20.223Z,0
2017-01-04T04:12:20.214Z,0
2017-01-04T04:13:20.127Z,0
2017-01-04T04:14:20.064Z,0
2017-01-04T04:15:20.195Z,0
2017-01-04T04:16:20.287Z,0
2017-01-04T04:17:20.198Z,0
2017-01-04T04:18:20.077Z,0
2017-01-04T04:19:20.146Z,0
2017-01-04T04:20:20.056Z,0
2017-01-04T04:21:20.185Z,0
2017-01-04T04:22:20.142Z,0
2017-01-04T04:23:20.231Z,0
2017-01-04T04:24:20.065Z,0
2017-01-04T04:25:20.046Z,0
2017-01-04T04:26:20.187Z,0
2017-01-04T04:27:21.168Z,0
2017-01-04T04:28:20.059Z,0
2017-01-04T04:29:20.136Z,0
2017-01-04T04:30:23.047Z,0
2017-01-04T04:31:20.219Z,0
2017-01-04T04:32:20.116Z,0
2017-01-04T04:33:20.181Z,0
2017-01-04T04:34:20.254Z,0
2017-01-04T04:35:20.194Z,0
2017-01-04T04:36:20.163Z,0
2017-01-04T04:37:20.104Z,0
2017-01-04T04:38:20.254Z,0
2017-01-04T04:39:20.135Z,0
2017-01-04T04:40:20.246Z,0
2017-01-04T04:41:20.345Z,0
2017-01-04T04:42:20.214Z,0
2017-01-04T04:43:20.147Z,0
2017-01-04T04:44:20.225Z,0
2017-01-04T04:45:20.136Z,0
2017-01-04T04:46:20.238Z,0
2017-01-04T04:47:20.116Z,0
2017-01-04T04:48:20.727Z,0
2017-01-04T04:49:20.213Z,0
2017-01-04T04:50:20.246Z,0
2017-01-04T04:51:20.184Z,0
2017-01-04T04:52:20.213Z,0
2017-01-04T04:53:20.808Z,0
2017-01-04T04:54:20.148Z,0
2017-01-04T04:55:20.412Z,0
2017-01-04T04:56:20.197Z,0
2017-01-04T04:57:20.203Z,0
2017-01-04T04:58:20.294Z,0
2017-01-04T04:59:20.185Z,0
2017-01-04T05:00:20.266Z,0
2017-01-04T05:01:20.182Z,0
2017-01-04T05:02:20.164Z,0
2017-01-04T05:03:20.334Z,0
2017-01-04T05:04:20.298Z,0
2017-01-04T05:05:20.244Z,0
2017-01-04T05:06:20.870Z,0
2017-01-04T05:07:20.185Z,0
2017-01-04T05:08:20.116Z,0
2017-01-04T05:09:20.235Z,0
2017-01-04T05:10:21.039Z,0
2017-01-04T05:11:20.302Z,0
2017-01-04T05:12:20.193Z,0
2017-01-04T05:13:20.205Z,0
2017-01-04T05:17:49.932Z,0
2017-01-04T05:18:50.010Z,0
2017-01-04T05:19:49.923Z,0
2017-01-04T05:20:49.859Z,0
2017-01-04T05:21:49.891Z,0
2017-01-04T05:22:49.951Z,0
2017-01-04T05:23:49.837Z,0
2017-01-04T05:24:50.103Z,0
2017-01-04T05:25:49.937Z,0
2017-01-04T05:26:49.900Z,0
2017-01-04T05:27:49.951Z,0
2017-01-04T05:28:49.921Z,0
2017-01-04T05:33:19.789Z,0
2017-01-04T05:34:19.925Z,0
2017-01-04T05:35:19.851Z,0
2017-01-04T05:36:19.861Z,0
2017-01-04T05:37:19.832Z,0
2017-01-04T05:38:19.980Z,0
2017-01-04T05:39:19.825Z,0
2017-01-04T05:40:19.781Z,0
2017-01-04T05:41:20.071Z,0
2017-01-04T05:42:19.891Z,0
2017-01-04T05:43:19.925Z,0
2017-01-04T05:44:20.018Z,0
2017-01-04T05:45:19.797Z,0
2017-01-04T05:46:20.021Z,0
2017-01-04T05:47:20.469Z,0
2017-01-04T05:48:19.839Z,0
2017-01-04T05:49:20.198Z,0
2017-01-04T05:50:20.128Z,0
2017-01-04T05:51:22.647Z,0
2017-01-04T05:52:19.842Z,0
2017-01-04T05:53:19.894Z,0
2017-01-04T05:54:19.885Z,0
2017-01-04T05:55:19.837Z,0
2017-01-04T05:56:19.884Z,0
2017-01-04T05:57:20.807Z,0
2017-01-04T05:58:19.975Z,0
2017-01-04T05:59:20.029Z,0
2017-01-04T06:00:19.946Z,0
2017-01-04T06:01:19.935Z,0
2017-01-04T06:02:20.046Z,0
2017-01-04T06:03:19.989Z,0
2017-01-04T06:04:19.878Z,0
2017-01-04T06:05:19.944Z,0
2017-01-04T06:06:19.966Z,0
2017-01-04T06:07:19.887Z,0
2017-01-04T06:08:19.912Z,0
2017-01-04T06:09:19.864Z,0
2017-01-04T06:10:20.033Z,0
2017-01-04T06:11:19.959Z,0
2017-01-04T06:12:19.993Z,0
2017-01-04T06:13:19.863Z,0
2017-01-04T06:14:19.895Z,0
2017-01-04T06:15:19.932Z,0
2017-01-04T06:16:19.887Z,0
2017-01-04T06:17:19.851Z,0
2017-01-04T06:18:19.978Z,0
2017-01-04T06:19:19.823Z,0
2017-01-04T06:20:19.881Z,0
2017-01-04T06:21:30.032Z,0
2017-01-04T06:22:21.631Z,0
2017-01-04T06:23:19.996Z,0
2017-01-04T06:24:19.955Z,0
2017-01-04T06:25:19.896Z,0
2017-01-04T06:26:20.176Z,0
2017-01-04T06:27:19.848Z,0
2017-01-04T06:28:19.921Z,0
2017-01-04T06:29:20.719Z,0
2017-01-04T06:30:19.976Z,0
2017-01-04T06:31:20.101Z,0
2017-01-04T06:32:19.922Z,0
2017-01-04T06:33:19.924Z,0
2017-01-04T06:34:19.981Z,0
2017-01-04T06:35:19.990Z,0
2017-01-04T06:36:19.986Z,0
2017-01-04T06:37:19.920Z,0
2017-01-04T06:38:20.018Z,0
2017-01-04T06:39:19.898Z,0
2017-01-04T06:40:20.001Z,0
2017-01-04T06:41:19.874Z,0
2017-01-04T06:42:19.965Z,0
2017-01-04T06:43:20.079Z,0
2017-01-04T06:44:19.930Z,0
2017-01-04T06:45:19.938Z,0
2017-01-04T06:46:19.928Z,0
2017-01-04T06:47:19.980Z,0
2017-01-04T06:48:19.914Z,0
2017-01-04T06:49:19.905Z,0
2017-01-04T06:50:19.954Z,0
2017-01-04T06:51:20.036Z,0
2017-01-04T06:52:19.977Z,0
2017-01-04T06:53:19.908Z,0
2017-01-04T06:54:19.982Z,0
2017-01-04T06:55:19.908Z,0
2017-01-04T06:56:19.910Z,0
2017-01-04T06:57:19.899Z,0
2017-01-04T06:58:20.636Z,0
2017-01-04T06:59:19.908Z,0
2017-01-04T07:00:20.075Z,0
2017-01-04T07:01:19.985Z,0
2017-01-04T07:02:20.128Z,0
2017-01-04T07:03:20.096Z,0
2017-01-04T07:04:19.921Z,0
2017-01-04T07:05:19.903Z,0
2017-01-04T07:06:20.040Z,0
2017-01-04T07:07:20.040Z,4
2017-01-04T07:08:20.043Z,0
2017-01-04T07:09:19.932Z,0
2017-01-04T07:10:19.970Z,4
2017-01-04T07:11:19.931Z,4
2017-01-04T07:12:19.953Z,0
2017-01-04T07:13:20.114Z,4
2017-01-04T07:14:20.004Z,4
2017-01-04T07:15:19.939Z,4
2017-01-04T07:16:20.110Z,4
2017-01-04T07:17:19.952Z,4
2017-01-04T07:18:20.109Z,4
2017-01-04T07:19:19.961Z,4
2017-01-04T07:20:20.112Z,12
2017-01-04T07:21:19.906Z,12
2017-01-04T07:22:19.973Z,12
2017-01-04T07:23:20.083Z,8
2017-01-04T07:24:19.993Z,12
2017-01-04T07:25:20.052Z,8
2017-01-04T07:26:20.009Z,8
2017-01-04T07:27:20.008Z,16
2017-01-04T07:28:20.108Z,16
2017-01-04T07:29:19.966Z,20
2017-01-04T07:30:20.210Z,36
2017-01-04T07:31:19.940Z,52
2017-01-04T07:32:20.016Z,56
2017-01-04T07:33:20.075Z,56
2017-01-04T07:34:22.820Z,56
2017-01-04T07:35:19.946Z,52
2017-01-04T07:36:20.099Z,56
2017-01-04T07:37:20.135Z,60
2017-01-04T07:38:19.984Z,60
2017-01-04T07:39:19.978Z,64
2017-01-04T07:40:20.013Z,84
2017-01-04T07:41:19.974Z,84
2017-01-04T07:42:20.116Z,88
2017-01-04T07:43:19.993Z,96
2017-01-04T07:44:22.063Z,120
2017-01-04T07:45:20.081Z,156
2017-01-04T07:46:20.122Z,172
2017-01-04T07:47:20.032Z,188
2017-01-04T07:48:20.151Z,188
2017-01-04T07:49:20.150Z,180
2017-01-04T07:50:20.296Z,196
2017-01-04T07:51:20.100Z,244
2017-01-04T07:52:19.969Z,256
2017-01-04T07:53:20.045Z,296
2017-01-04T07:54:21.070Z,320
2017-01-04T07:55:20.034Z,308
2017-01-04T07:56:20.269Z,352
2017-01-04T07:57:20.097Z,432
2017-01-04T07:58:20.648Z,504
2017-01-04T07:59:20.007Z,504
2017-01-04T08:00:20.165Z,516
2017-01-04T08:01:20.240Z,516
2017-01-04T08:02:20.096Z,524
2017-01-04T08:03:20.116Z,572
2017-01-04T08:04:20.218Z,584
2017-01-04T08:05:20.141Z,580
2017-01-04T08:06:20.271Z,700
2017-01-04T08:07:20.138Z,732
2017-01-04T08:08:20.135Z,724
2017-01-04T08:09:20.060Z,832
2017-01-04T08:10:20.125Z,944
2017-01-04T08:11:20.163Z,1068
2017-01-04T08:12:20.391Z,1132
2017-01-04T08:13:20.112Z,1108
2017-01-04T08:14:20.103Z,1048
2017-01-04T08:15:19.997Z,1180
2017-01-04T08:16:20.102Z,1320
2017-01-04T08:17:20.013Z,1368
2017-01-04T08:18:20.154Z,1400
2017-01-04T08:19:20.047Z,1432
2017-01-04T08:20:20.687Z,1488
2017-01-04T08:21:20.122Z,1568
2017-01-04T08:22:20.123Z,1636
2017-01-04T08:23:20.062Z,1720
2017-01-04T08:24:20.022Z,1800
2017-01-04T08:25:20.043Z,1848
2017-01-04T08:26:20.185Z,1872
2017-01-04T08:27:20.077Z,1920
2017-01-04T08:28:20.193Z,1968
2017-01-04T08:29:20.173Z,1968
2017-01-04T08:30:20.052Z,2048
2017-01-04T08:31:20.051Z,2108
2017-01-04T08:32:20.090Z,1956
2017-01-04T08:33:20.101Z,1916
2017-01-04T08:34:20.097Z,2248
2017-01-04T08:35:20.171Z,2516
2017-01-04T08:36:20.061Z,2652
2017-01-04T08:37:20.185Z,2736
2017-01-04T08:38:20.270Z,2824
2017-01-04T08:39:20.050Z,2892
2017-01-04T08:40:20.155Z,2988
2017-01-04T08:41:20.192Z,3072
2017-01-04T08:42:20.130Z,3112
2017-01-04T08:43:20.277Z,3180
2017-01-04T08:44:20.828Z,3272
2017-01-04T08:45:20.457Z,3352
2017-01-04T08:46:20.101Z,3396
2017-01-04T08:47:20.066Z,3420
2017-01-04T08:48:20.460Z,3432
2017-01-04T08:49:20.092Z,3448
2017-01-04T08:50:20.122Z,3452
2017-01-04T08:51:20.221Z,3496
2017-01-04T08:52:20.819Z,3612
2017-01-04T08:53:20.212Z,3700
2017-01-04T08:54:20.110Z,3764
2017-01-04T08:55:20.251Z,3820
2017-01-04T08:56:20.094Z,3844
2017-01-04T08:57:20.431Z,3868
2017-01-04T08:58:20.212Z,3824
2017-01-04T08:59:20.219Z,3780
2017-01-04T09:00:20.099Z,3724
2017-01-04T09:01:20.063Z,3672
2017-01-04T09:02:20.072Z,3676
2017-01-04T09:03:20.152Z,3672
2017-01-04T09:04:20.192Z,3672
2017-01-04T09:05:20.114Z,3704
2017-01-04T09:06:20.222Z,3868
2017-01-04T09:07:20.262Z,4000
2017-01-04T09:08:21.237Z,4160
2017-01-04T09:09:20.214Z,4608
2017-01-04T09:10:20.310Z,4892
2017-01-04T09:11:20.262Z,4972
2017-01-04T09:12:20.235Z,5008
2017-01-04T09:13:20.090Z,5216
2017-01-04T09:14:20.173Z,5228
2017-01-04T09:15:20.082Z,5036
2017-01-04T09:16:20.212Z,5004
2017-01-04T09:17:20.095Z,5360
2017-01-04T09:18:20.264Z,5608
2017-01-04T09:19:20.236Z,5772
2017-01-04T09:20:20.273Z,5920
2017-01-04T09:21:20.302Z,6288
2017-01-04T09:22:20.199Z,7448
2017-01-04T09:23:20.233Z,8700
2017-01-04T09:24:20.259Z,9108
2017-01-04T09:25:20.247Z,6860
2017-01-04T09:26:20.148Z,3724
2017-01-04T09:27:20.317Z,2948
2017-01-04T09:28:20.244Z,2844
2017-01-04T09:29:20.102Z,3160
2017-01-04T09:30:20.228Z,3696
2017-01-04T09:31:20.182Z,4244
2017-01-04T09:32:20.259Z,4964
2017-01-04T09:33:20.346Z,5684
2017-01-04T09:34:20.217Z,6448
2017-01-04T09:35:20.275Z,7060
2017-01-04T09:36:20.202Z,7120
2017-01-04T09:37:20.282Z,6392
2017-01-04T09:38:20.238Z,6044
2017-01-04T09:39:20.149Z,6616
2017-01-04T09:40:20.208Z,7548
2017-01-04T09:41:20.161Z,8772
2017-01-04T09:42:20.126Z,9044
2017-01-04T09:43:20.380Z,8300
2017-01-04T09:44:20.211Z,6756
2017-01-04T09:45:20.242Z,5556
2017-01-04T09:46:20.263Z,5572
2017-01-04T09:47:20.226Z,6048
2017-01-04T09:48:20.250Z,6160
2017-01-04T09:49:20.301Z,6260
2017-01-04T09:50:20.310Z,6624
2017-01-04T09:51:20.158Z,6792
2017-01-04T09:52:20.343Z,6564
2017-01-04T09:53:21.082Z,5028
2017-01-04T09:54:20.320Z,4632
2017-01-04T09:55:20.831Z,3668
2017-01-04T09:56:20.542Z,2312
2017-01-04T09:57:20.742Z,2004
2017-01-04T09:58:20.932Z,2596
2017-01-04T09:59:20.872Z,3996
2017-01-04T10:00:20.770Z,5016
2017-01-04T10:01:20.545Z,7440
2017-01-04T10:02:20.867Z,8524
2017-01-04T10:03:20.270Z,7748
2017-01-04T10:04:20.318Z,7260
2017-01-04T10:05:20.159Z,8200
2017-01-04T10:06:20.300Z,11164
2017-01-04T10:07:20.189Z,10940
2017-01-04T10:08:20.315Z,8692
2017-01-04T10:09:20.320Z,7168
2017-01-04T10:10:20.202Z,6336
2017-01-04T10:11:20.229Z,5772
2017-01-04T10:12:20.329Z,5652
2017-01-04T10:13:20.349Z,5120
2017-01-04T10:14:20.254Z,5076
2017-01-04T10:15:20.268Z,4864
2017-01-04T10:16:20.331Z,4912
2017-01-04T10:17:20.220Z,5224
2017-01-04T10:18:20.267Z,5640
2017-01-04T10:23:38.197Z,4636
2017-01-04T10:23:49.989Z,4616
2017-01-04T10:24:49.834Z,5004
2017-01-04T10:25:49.909Z,6676
2017-01-04T10:26:49.838Z,7424
2017-01-04T10:27:49.877Z,8760
2017-01-04T10:28:49.958Z,9696
2017-01-04T10:29:49.901Z,11184
2017-01-04T10:30:49.822Z,8244
2017-01-04T10:31:49.908Z,5284
2017-01-04T10:32:49.815Z,3772
2017-01-04T10:33:49.867Z,3028
2017-01-04T10:34:49.888Z,3164
2017-01-04T10:35:49.947Z,4300
2017-01-04T10:36:49.870Z,7736
2017-01-04T10:37:49.892Z,8640
2017-01-04T10:38:49.867Z,8532
2017-01-04T10:39:50.080Z,7228
2017-01-04T10:40:49.812Z,6152
2017-01-04T10:41:49.905Z,5168
2017-01-04T10:42:49.796Z,4280
2017-01-04T10:43:49.945Z,4584
2017-01-04T10:44:49.898Z,4152
2017-01-04T10:45:49.948Z,4124
2017-01-04T10:46:49.834Z,4092
2017-01-04T10:47:49.946Z,3728
2017-01-04T10:48:50.021Z,3808
2017-01-04T10:49:50.009Z,4252
2017-01-04T10:50:49.877Z,4364
2017-01-04T10:51:49.874Z,6628
2017-01-04T10:52:49.996Z,7932
2017-01-04T10:53:49.978Z,7764
2017-01-04T10:54:49.843Z,6156
2017-01-04T10:55:49.950Z,6520
2017-01-04T10:56:50.088Z,5320
2017-01-04T10:57:49.971Z,4464
2017-01-04T10:58:49.960Z,3888
2017-01-04T10:59:49.885Z,3428
2017-01-04T11:00:50.002Z,6784
2017-01-04T11:01:50.086Z,10072
2017-01-04T11:02:49.896Z,10232
2017-01-04T11:03:50.142Z,10604
2017-01-04T11:04:49.835Z,11520
2017-01-04T11:05:49.964Z,13812
2017-01-04T11:06:49.900Z,18144
2017-01-04T11:07:50.045Z,17664
2017-01-04T11:08:49.946Z,9740
2017-01-04T11:09:50.069Z,3512
2017-01-04T11:10:49.918Z,3196
2017-01-04T11:11:49.905Z,4916
2017-01-04T11:12:50.182Z,5644
2017-01-04T11:13:50.222Z,5864
2017-01-04T11:14:50.091Z,6448
2017-01-04T11:15:49.995Z,7836
2017-01-04T11:16:49.911Z,6780
2017-01-04T11:17:50.008Z,3820
2017-01-04T11:18:49.918Z,3404
2017-01-04T11:19:50.065Z,4208
2017-01-04T11:20:49.896Z,5244
2017-01-04T11:21:50.086Z,6088
2017-01-04T11:22:49.863Z,5340
2017-01-04T11:23:50.023Z,5084
2017-01-04T11:24:49.997Z,5580
2017-01-04T11:25:50.035Z,3456
2017-01-04T11:26:50.094Z,2344
2017-01-04T11:27:50.072Z,2680
2017-01-04T11:28:50.015Z,4932
2017-01-04T11:29:49.965Z,7380
2017-01-04T11:30:50.133Z,11188
2017-01-04T11:31:50.043Z,7984
2017-01-04T11:32:50.010Z,9608
2017-01-04T11:33:50.035Z,9816
2017-01-04T11:34:50.026Z,8476
2017-01-04T11:35:50.049Z,8072
2017-01-04T11:36:50.112Z,10416
2017-01-04T11:37:49.952Z,8776
2017-01-04T11:38:49.980Z,8252
2017-01-04T11:39:49.991Z,8604
2017-01-04T11:40:49.949Z,8788
2017-01-04T11:41:49.972Z,8868
2017-01-04T11:42:50.091Z,10068
2017-01-04T11:43:50.053Z,11384
2017-01-04T11:44:49.953Z,12384
2017-01-04T11:45:50.314Z,13112
2017-01-04T11:46:50.101Z,15936
2017-01-04T11:47:50.049Z,17152
2017-01-04T11:48:50.085Z,13520
2017-01-04T11:49:50.056Z,13688
2017-01-04T11:50:50.081Z,17536
2017-01-04T11:51:50.048Z,17472
2017-01-04T11:52:49.959Z,12348
2017-01-04T11:53:50.141Z,14524
2017-01-04T11:54:49.938Z,17792
2017-01-04T11:55:50.053Z,20000
2017-01-04T11:56:50.088Z,13528
2017-01-04T11:57:50.140Z,15200
2017-01-04T11:58:50.031Z,14180
2017-01-04T11:59:50.000Z,14020
2017-01-04T12:00:50.003Z,12720
2017-01-04T12:01:50.029Z,12424
2017-01-04T12:02:50.041Z,15840
2017-01-04T12:03:50.113Z,16672
2017-01-04T12:04:50.050Z,18976
2017-01-04T12:05:50.183Z,19264
2017-01-04T12:06:50.011Z,19616
2017-01-04T12:07:49.965Z,19712
2017-01-04T12:08:50.092Z,18912
2017-01-04T12:09:50.053Z,13216
2017-01-04T12:10:49.985Z,12404
2017-01-04T12:11:50.152Z,10176
2017-01-04T12:12:49.977Z,7996
2017-01-04T12:13:50.179Z,6028
2017-01-04T12:14:50.017Z,8052
2017-01-04T12:15:50.157Z,11696
2017-01-04T12:16:50.059Z,6084
2017-01-04T12:17:49.963Z,3624
2017-01-04T12:18:49.983Z,3964
2017-01-04T12:19:50.076Z,3256
2017-01-04T12:20:50.056Z,2708
2017-01-04T12:21:50.035Z,2540
2017-01-04T12:22:50.006Z,2784
2017-01-04T12:23:50.101Z,2944
2017-01-04T12:24:50.120Z,2836
2017-01-04T12:25:50.146Z,2768
2017-01-04T12:26:49.922Z,2644
2017-01-04T12:27:50.127Z,2648
2017-01-04T12:28:50.008Z,2492
2017-01-04T12:29:50.691Z,2060
2017-01-04T12:30:50.057Z,1696
2017-01-04T12:31:50.045Z,1408
2017-01-04T12:32:50.137Z,1320
2017-01-04T12:33:50.017Z,1092
2017-01-04T12:34:50.064Z,1172
2017-01-04T12:35:50.061Z,1624
2017-01-04T12:36:50.026Z,2240
2017-01-04T12:37:50.052Z,3048
2017-01-04T12:38:50.164Z,5032
2017-01-04T12:39:50.052Z,7832
2017-01-04T12:40:50.054Z,10244
2017-01-04T12:41:50.015Z,11192
2017-01-04T12:42:49.931Z,10580
2017-01-04T12:43:50.079Z,9500
2017-01-04T12:44:50.134Z,7432
2017-01-04T12:45:50.107Z,6960
2017-01-04T12:46:49.987Z,7732
2017-01-04T12:47:49.967Z,7908
2017-01-04T12:48:50.143Z,7952
2017-01-04T12:49:50.038Z,7568
2017-01-04T12:50:50.015Z,7240
2017-01-04T12:51:50.026Z,6512
2017-01-04T12:52:50.905Z,5948
2017-01-04T12:53:50.092Z,6180
2017-01-04T12:59:07.365Z,6484
2017-01-04T12:59:19.141Z,6480
2017-01-04T13:00:19.006Z,6420
2017-01-04T13:01:19.123Z,6204
2017-01-04T13:02:19.046Z,6064
2017-01-04T13:03:19.788Z,5932
2017-01-04T13:04:20.371Z,5844
2017-01-04T13:05:19.053Z,5608
2017-01-04T13:06:19.018Z,5496
2017-01-04T13:07:19.006Z,5640
2017-01-04T13:08:19.093Z,5060
2017-01-04T13:09:19.099Z,5580
2017-01-04T13:10:19.035Z,5372
2017-01-04T13:11:19.213Z,5316
2017-01-04T13:12:20.426Z,5360
2017-01-04T13:13:19.133Z,5312
2017-01-04T13:14:19.016Z,5272
2017-01-04T13:15:18.954Z,5296
2017-01-04T13:16:19.427Z,5420
2017-01-04T13:17:19.125Z,5496
2017-01-04T13:18:19.036Z,5528
2017-01-04T13:19:19.165Z,5684
2017-01-04T13:20:19.072Z,5708
2017-01-04T13:21:19.179Z,5768
2017-01-04T13:22:19.054Z,5684
2017-01-04T13:23:19.024Z,5620
2017-01-04T13:24:19.083Z,5624
2017-01-04T13:25:19.241Z,5708
2017-01-04T13:26:19.189Z,5752
2017-01-04T13:27:19.056Z,5868
2017-01-04T13:28:19.145Z,5860
2017-01-04T13:29:22.978Z,5860
2017-01-04T13:30:19.127Z,5812
2017-01-04T13:31:19.147Z,5720
2017-01-04T13:32:19.138Z,5736
2017-01-04T13:33:19.257Z,5740
2017-01-04T13:34:19.738Z,5676
2017-01-04T13:35:19.079Z,5464
2017-01-04T13:36:19.597Z,5608
2017-01-04T13:37:19.245Z,5464
2017-01-04T13:38:19.173Z,5384
2017-01-04T13:39:19.290Z,5356
2017-01-04T13:40:19.237Z,5300
2017-01-04T13:41:19.272Z,5324
2017-01-04T13:42:19.119Z,5392
2017-01-04T13:43:19.128Z,5412
2017-01-04T13:44:19.209Z,5276
2017-01-04T13:45:19.289Z,5212
2017-01-04T13:46:29.095Z,5188
2017-01-04T13:47:19.207Z,5300
2017-01-04T13:48:19.247Z,4836
2017-01-04T13:49:19.281Z,4980
2017-01-04T13:50:19.115Z,4884
2017-01-04T13:51:19.258Z,4812
2017-01-04T13:52:19.124Z,4684
2017-01-04T13:53:19.045Z,5108
2017-01-04T13:54:19.144Z,7104
2017-01-04T13:55:19.291Z,8156
2017-01-04T13:59:47.724Z,4736
2017-01-04T14:00:47.604Z,3408
2017-01-04T14:01:47.654Z,2204
2017-01-04T14:02:47.703Z,2276
2017-01-04T14:03:47.703Z,2380
2017-01-04T14:04:47.717Z,2184
2017-01-04T14:05:47.743Z,2396
2017-01-04T14:06:47.708Z,2140
2017-01-04T14:07:47.703Z,2044
2017-01-04T14:08:47.707Z,1968
2017-01-04T14:09:47.770Z,1812
2017-01-04T14:10:47.702Z,1472
2017-01-04T14:11:47.775Z,1200
2017-01-04T14:12:47.650Z,1096
2017-01-04T14:13:47.790Z,1284
2017-01-04T14:14:47.631Z,1304
2017-01-04T14:15:47.658Z,1080
2017-01-04T14:16:47.778Z,1292
2017-01-04T14:17:47.741Z,1296
2017-01-04T14:18:47.734Z,1496
2017-01-04T14:19:47.768Z,1508
2017-01-04T14:20:47.783Z,1748
2017-01-04T14:21:47.697Z,1808
2017-01-04T14:22:47.633Z,2664
2017-01-04T14:23:47.698Z,3336
2017-01-04T14:24:47.645Z,2428